sensor_id;sensor_type;location;lat;lon;timestamp;temperature;humidity
7684;DHT22;3884;48.616;12.872;2022-07-11T00:02:05;11.10;99.90
7684;DHT22;3884;48.616;12.872;2022-07-11T00:04:32;11.10;99.90
7684;DHT22;3884;48.616;12.872;2022-07-11T00:07:00;11.20;99.90
7684;DHT22;3884;48.616;12.872;2022-07-11T00:09:27;11.20;99.90
7684;DHT22;3884;48.616;12.872;2022-07-11T00:11:55;11.10;99.90
7684;DHT22;3884;48.616;12.872;2022-07-11T00:14:23;11.20;99.90
7684;DHT22;3884;48.616;12.872;2022-07-11T00:16:52;11.20;99.90
7684;DHT22;3884;48.616;12.872;2022-07-11T00:19:19;11.40;97.90
7684;DHT22;3884;48.616;12.872;2022-07-11T00:21:46;11.20;99.90
7684;DHT22;3884;48.616;12.872;2022-07-11T00:24:13;11.30;99.90
7684;DHT22;3884;48.616;12.872;2022-07-11T00:26:40;11.40;99.90
7684;DHT22;3884;48.616;12.872;2022-07-11T00:29:07;11.40;99.90
7684;DHT22;3884;48.616;12.872;2022-07-11T00:31:35;11.50;68.60
7684;DHT22;3884;48.616;12.872;2022-07-11T00:34:02;11.50;1.00
7684;DHT22;3884;48.616;12.872;2022-07-11T00:36:29;11.60;1.00
7684;DHT22;3884;48.616;12.872;2022-07-11T00:38:57;11.60;44.70
7684;DHT22;3884;48.616;12.872;2022-07-11T00:41:24;11.60;99.90
7684;DHT22;3884;48.616;12.872;2022-07-11T00:43:52;11.60;99.90
7684;DHT22;3884;48.616;12.872;2022-07-11T00:46:20;11.50;99.90
7684;DHT22;3884;48.616;12.872;2022-07-11T00:48:48;11.40;1.00
7684;DHT22;3884;48.616;12.872;2022-07-11T00:51:15;11.30;1.00
7684;DHT22;3884;48.616;12.872;2022-07-11T00:53:48;11.30;1.00
7684;DHT22;3884;48.616;12.872;2022-07-11T00:56:15;11.20;99.90
7684;DHT22;3884;48.616;12.872;2022-07-11T00:58:42;11.20;1.00
7684;DHT22;3884;48.616;12.872;2022-07-11T01:01:10;11.40;99.90
7684;DHT22;3884;48.616;12.872;2022-07-11T01:03:37;11.50;99.90
7684;DHT22;3884;48.616;12.872;2022-07-11T01:06:07;11.50;99.90
7684;DHT22;3884;48.616;12.872;2022-07-11T01:08:34;11.40;99.90
7684;DHT22;3884;48.616;12.872;2022-07-11T01:11:02;11.30;1.00
7684;DHT22;3884;48.616;12.872;2022-07-11T01:13:29;11.40;99.90
7684;DHT22;3884;48.616;12.872;2022-07-11T01:16:18;11.70;99.90
7684;DHT22;3884;48.616;12.872;2022-07-11T01:18:46;11.60;99.90
7684;DHT22;3884;48.616;12.872;2022-07-11T01:21:24;11.70;99.90
7684;DHT22;3884;48.616;12.872;2022-07-11T01:23:53;11.80;99.90
7684;DHT22;3884;48.616;12.872;2022-07-11T01:26:21;12.00;1.00
7684;DHT22;3884;48.616;12.872;2022-07-11T01:28:48;12.10;1.00
7684;DHT22;3884;48.616;12.872;2022-07-11T01:31:16;12.20;1.00
7684;DHT22;3884;48.616;12.872;2022-07-11T01:33:43;12.20;99.90
7684;DHT22;3884;48.616;12.872;2022-07-11T01:36:10;12.20;1.00
7684;DHT22;3884;48.616;12.872;2022-07-11T01:38:37;12.30;1.00
7684;DHT22;3884;48.616;12.872;2022-07-11T01:41:06;12.30;1.00
7684;DHT22;3884;48.616;12.872;2022-07-11T01:43:33;12.30;1.00
7684;DHT22;3884;48.616;12.872;2022-07-11T01:46:00;12.30;1.00
7684;DHT22;3884;48.616;12.872;2022-07-11T01:48:27;12.20;1.00
7684;DHT22;3884;48.616;12.872;2022-07-11T01:50:54;12.10;81.50
7684;DHT22;3884;48.616;12.872;2022-07-11T01:53:21;12.20;1.00
7684;DHT22;3884;48.616;12.872;2022-07-11T01:55:48;12.20;1.00
7684;DHT22;3884;48.616;12.872;2022-07-11T01:58:16;12.30;1.00
7684;DHT22;3884;48.616;12.872;2022-07-11T02:00:43;12.40;99.90
7684;DHT22;3884;48.616;12.872;2022-07-11T02:03:10;12.50;77.40
7684;DHT22;3884;48.616;12.872;2022-07-11T02:05:37;12.60;1.00
7684;DHT22;3884;48.616;12.872;2022-07-11T02:08:06;12.60;1.00
7684;DHT22;3884;48.616;12.872;2022-07-11T02:10:44;12.60;99.90
7684;DHT22;3884;48.616;12.872;2022-07-11T02:13:12;12.70;1.00
7684;DHT22;3884;48.616;12.872;2022-07-11T02:15:41;12.70;99.90
7684;DHT22;3884;48.616;12.872;2022-07-11T02:18:09;12.70;99.90
7684;DHT22;3884;48.616;12.872;2022-07-11T02:20:38;12.70;99.90
7684;DHT22;3884;48.616;12.872;2022-07-11T02:23:05;12.80;99.90
7684;DHT22;3884;48.616;12.872;2022-07-11T02:25:32;12.80;1.00
7684;DHT22;3884;48.616;12.872;2022-07-11T02:28:01;12.80;1.00
7684;DHT22;3884;48.616;12.872;2022-07-11T02:30:28;12.80;99.90
7684;DHT22;3884;48.616;12.872;2022-07-11T02:32:56;12.70;99.90
7684;DHT22;3884;48.616;12.872;2022-07-11T02:35:23;12.70;64.90
7684;DHT22;3884;48.616;12.872;2022-07-11T02:37:50;12.70;99.90
7684;DHT22;3884;48.616;12.872;2022-07-11T02:40:16;12.70;1.00
7684;DHT22;3884;48.616;12.872;2022-07-11T02:42:43;12.80;99.90
7684;DHT22;3884;48.616;12.872;2022-07-11T02:45:10;12.80;99.90
7684;DHT22;3884;48.616;12.872;2022-07-11T02:47:38;12.80;99.90
7684;DHT22;3884;48.616;12.872;2022-07-11T02:50:09;12.80;1.00
7684;DHT22;3884;48.616;12.872;2022-07-11T02:52:37;13.00;99.90
7684;DHT22;3884;48.616;12.872;2022-07-11T02:55:06;13.00;99.90
7684;DHT22;3884;48.616;12.872;2022-07-11T02:57:34;13.00;1.00
7684;DHT22;3884;48.616;12.872;2022-07-11T03:00:01;13.00;1.00
7684;DHT22;3884;48.616;12.872;2022-07-11T03:02:29;13.00;99.90
7684;DHT22;3884;48.616;12.872;2022-07-11T03:04:56;13.10;99.90
7684;DHT22;3884;48.616;12.872;2022-07-11T03:07:25;13.10;39.90
7684;DHT22;3884;48.616;12.872;2022-07-11T03:09:53;13.00;1.00
7684;DHT22;3884;48.616;12.872;2022-07-11T03:12:20;13.00;1.00
7684;DHT22;3884;48.616;12.872;2022-07-11T03:14:47;13.10;1.00
7684;DHT22;3884;48.616;12.872;2022-07-11T03:17:14;13.10;1.00
7684;DHT22;3884;48.616;12.872;2022-07-11T03:19:41;13.20;1.00
7684;DHT22;3884;48.616;12.872;2022-07-11T03:22:08;13.20;1.00
7684;DHT22;3884;48.616;12.872;2022-07-11T03:24:36;13.20;1.00
7684;DHT22;3884;48.616;12.872;2022-07-11T03:27:04;13.20;1.00
7684;DHT22;3884;48.616;12.872;2022-07-11T03:29:31;13.20;1.00
7684;DHT22;3884;48.616;12.872;2022-07-11T03:31:58;13.30;1.00
7684;DHT22;3884;48.616;12.872;2022-07-11T03:34:24;13.20;99.90
7684;DHT22;3884;48.616;12.872;2022-07-11T03:36:51;13.10;99.90
7684;DHT22;3884;48.616;12.872;2022-07-11T03:39:19;13.10;99.90
7684;DHT22;3884;48.616;12.872;2022-07-11T03:41:48;13.20;1.00
7684;DHT22;3884;48.616;12.872;2022-07-11T03:44:15;13.20;16.30
7684;DHT22;3884;48.616;12.872;2022-07-11T03:46:41;13.20;1.00
7684;DHT22;3884;48.616;12.872;2022-07-11T03:49:08;13.30;1.00
7684;DHT22;3884;48.616;12.872;2022-07-11T03:51:35;13.30;1.00
7684;DHT22;3884;48.616;12.872;2022-07-11T03:54:02;13.30;99.90
7684;DHT22;3884;48.616;12.872;2022-07-11T03:56:29;13.30;99.90
7684;DHT22;3884;48.616;12.872;2022-07-11T03:58:58;13.30;99.90
7684;DHT22;3884;48.616;12.872;2022-07-11T04:01:25;13.30;5.40
7684;DHT22;3884;48.616;12.872;2022-07-11T04:03:52;13.40;1.00
7684;DHT22;3884;48.616;12.872;2022-07-11T04:06:18;13.50;1.00
7684;DHT22;3884;48.616;12.872;2022-07-11T04:08:45;13.40;1.00
7684;DHT22;3884;48.616;12.872;2022-07-11T04:11:12;13.40;1.00
7684;DHT22;3884;48.616;12.872;2022-07-11T04:13:39;13.50;1.00
7684;DHT22;3884;48.616;12.872;2022-07-11T04:16:07;13.60;1.00
7684;DHT22;3884;48.616;12.872;2022-07-11T04:18:34;13.60;1.00
7684;DHT22;3884;48.616;12.872;2022-07-11T04:21:01;13.70;1.00
7684;DHT22;3884;48.616;12.872;2022-07-11T04:23:28;13.70;1.00
7684;DHT22;3884;48.616;12.872;2022-07-11T04:25:54;13.70;1.00
7684;DHT22;3884;48.616;12.872;2022-07-11T04:28:21;13.70;1.00
7684;DHT22;3884;48.616;12.872;2022-07-11T04:30:48;13.70;99.90
7684;DHT22;3884;48.616;12.872;2022-07-11T04:33:16;13.60;99.90
7684;DHT22;3884;48.616;12.872;2022-07-11T04:35:43;13.70;99.90
7684;DHT22;3884;48.616;12.872;2022-07-11T04:38:10;13.80;1.00
7684;DHT22;3884;48.616;12.872;2022-07-11T04:40:37;13.90;1.00
7684;DHT22;3884;48.616;12.872;2022-07-11T04:43:04;13.80;1.00
7684;DHT22;3884;48.616;12.872;2022-07-11T04:45:31;13.80;99.90
7684;DHT22;3884;48.616;12.872;2022-07-11T04:47:58;13.80;99.90
7684;DHT22;3884;48.616;12.872;2022-07-11T04:50:28;13.90;99.90
7684;DHT22;3884;48.616;12.872;2022-07-11T04:52:55;14.00;33.90
7684;DHT22;3884;48.616;12.872;2022-07-11T04:55:22;14.00;1.00
7684;DHT22;3884;48.616;12.872;2022-07-11T04:57:49;14.10;1.00
7684;DHT22;3884;48.616;12.872;2022-07-11T05:00:16;14.20;1.00
7684;DHT22;3884;48.616;12.872;2022-07-11T05:02:43;14.20;1.00
7684;DHT22;3884;48.616;12.872;2022-07-11T05:05:10;14.10;1.00
7684;DHT22;3884;48.616;12.872;2022-07-11T05:07:39;14.10;1.00
7684;DHT22;3884;48.616;12.872;2022-07-11T05:10:06;14.20;1.00
7684;DHT22;3884;48.616;12.872;2022-07-11T05:12:33;14.30;1.00
7684;DHT22;3884;48.616;12.872;2022-07-11T05:15:00;14.50;1.00
7684;DHT22;3884;48.616;12.872;2022-07-11T05:17:27;14.40;1.00
7684;DHT22;3884;48.616;12.872;2022-07-11T05:19:54;14.50;1.00
7684;DHT22;3884;48.616;12.872;2022-07-11T05:22:21;14.50;99.90
7684;DHT22;3884;48.616;12.872;2022-07-11T05:24:49;14.50;99.90
7684;DHT22;3884;48.616;12.872;2022-07-11T05:27:16;14.60;99.90
7684;DHT22;3884;48.616;12.872;2022-07-11T05:29:43;14.60;99.90
7684;DHT22;3884;48.616;12.872;2022-07-11T05:32:10;14.60;99.90
7684;DHT22;3884;48.616;12.872;2022-07-11T05:34:37;14.70;99.90
7684;DHT22;3884;48.616;12.872;2022-07-11T05:37:05;14.70;99.90
7684;DHT22;3884;48.616;12.872;2022-07-11T05:39:32;14.70;99.90
7684;DHT22;3884;48.616;12.872;2022-07-11T05:42:00;14.70;99.90
7684;DHT22;3884;48.616;12.872;2022-07-11T05:44:27;14.80;99.90
7684;DHT22;3884;48.616;12.872;2022-07-11T05:46:58;14.90;99.90
7684;DHT22;3884;48.616;12.872;2022-07-11T05:49:25;14.90;99.90
7684;DHT22;3884;48.616;12.872;2022-07-11T05:51:52;15.00;99.90
7684;DHT22;3884;48.616;12.872;2022-07-11T05:54:19;15.10;99.90
7684;DHT22;3884;48.616;12.872;2022-07-11T05:56:45;15.10;99.90
7684;DHT22;3884;48.616;12.872;2022-07-11T05:59:14;15.20;99.90
7684;DHT22;3884;48.616;12.872;2022-07-11T06:01:41;15.10;99.90
7684;DHT22;3884;48.616;12.872;2022-07-11T06:04:07;15.10;99.90
7684;DHT22;3884;48.616;12.872;2022-07-11T06:06:35;15.20;99.90
7684;DHT22;3884;48.616;12.872;2022-07-11T06:09:02;15.30;99.90
7684;DHT22;3884;48.616;12.872;2022-07-11T06:11:28;15.30;99.90
7684;DHT22;3884;48.616;12.872;2022-07-11T06:13:55;15.30;99.90
7684;DHT22;3884;48.616;12.872;2022-07-11T06:16:24;15.50;99.90
7684;DHT22;3884;48.616;12.872;2022-07-11T06:18:50;15.50;99.90
7684;DHT22;3884;48.616;12.872;2022-07-11T06:21:18;15.40;99.90
7684;DHT22;3884;48.616;12.872;2022-07-11T06:23:44;15.30;99.90
7684;DHT22;3884;48.616;12.872;2022-07-11T06:26:11;15.40;99.90
7684;DHT22;3884;48.616;12.872;2022-07-11T06:28:40;15.40;99.90
7684;DHT22;3884;48.616;12.872;2022-07-11T06:31:07;15.60;99.90
7684;DHT22;3884;48.616;12.872;2022-07-11T06:33:35;15.60;99.90
7684;DHT22;3884;48.616;12.872;2022-07-11T06:36:03;15.70;99.90
7684;DHT22;3884;48.616;12.872;2022-07-11T06:38:32;15.70;99.90
7684;DHT22;3884;48.616;12.872;2022-07-11T06:40:58;15.70;99.90
7684;DHT22;3884;48.616;12.872;2022-07-11T06:43:25;15.60;99.90
7684;DHT22;3884;48.616;12.872;2022-07-11T06:45:52;15.50;99.90
7684;DHT22;3884;48.616;12.872;2022-07-11T06:48:20;15.50;99.90
7684;DHT22;3884;48.616;12.872;2022-07-11T06:50:48;15.50;99.90
7684;DHT22;3884;48.616;12.872;2022-07-11T06:53:15;15.40;99.90
7684;DHT22;3884;48.616;12.872;2022-07-11T06:55:43;15.30;1.00
7684;DHT22;3884;48.616;12.872;2022-07-11T06:58:09;15.40;1.00
7684;DHT22;3884;48.616;12.872;2022-07-11T07:00:36;15.40;99.90
7684;DHT22;3884;48.616;12.872;2022-07-11T07:03:03;15.40;1.00
7684;DHT22;3884;48.616;12.872;2022-07-11T07:05:30;15.50;99.90
7684;DHT22;3884;48.616;12.872;2022-07-11T07:07:58;15.30;1.00
7684;DHT22;3884;48.616;12.872;2022-07-11T07:10:25;15.30;1.00
7684;DHT22;3884;48.616;12.872;2022-07-11T07:12:53;15.40;1.00
7684;DHT22;3884;48.616;12.872;2022-07-11T07:15:19;15.40;99.90
7684;DHT22;3884;48.616;12.872;2022-07-11T07:17:46;15.40;99.90
7684;DHT22;3884;48.616;12.872;2022-07-11T07:20:13;15.30;1.00
7684;DHT22;3884;48.616;12.872;2022-07-11T07:22:40;15.10;1.00
7684;DHT22;3884;48.616;12.872;2022-07-11T07:25:09;15.10;99.90
7684;DHT22;3884;48.616;12.872;2022-07-11T07:27:36;15.10;99.90
7684;DHT22;3884;48.616;12.872;2022-07-11T07:30:04;15.20;1.00
7684;DHT22;3884;48.616;12.872;2022-07-11T07:32:31;15.00;99.90
7684;DHT22;3884;48.616;12.872;2022-07-11T07:34:58;15.10;1.00
7684;DHT22;3884;48.616;12.872;2022-07-11T07:37:26;15.00;1.00
7684;DHT22;3884;48.616;12.872;2022-07-11T07:39:53;15.00;99.90
7684;DHT22;3884;48.616;12.872;2022-07-11T07:42:21;14.90;99.90
7684;DHT22;3884;48.616;12.872;2022-07-11T07:44:48;14.70;1.00
7684;DHT22;3884;48.616;12.872;2022-07-11T07:47:15;14.60;91.50
7684;DHT22;3884;48.616;12.872;2022-07-11T07:49:42;14.60;99.90
7684;DHT22;3884;48.616;12.872;2022-07-11T07:52:08;14.60;1.00
7684;DHT22;3884;48.616;12.872;2022-07-11T07:54:35;14.70;1.00
7684;DHT22;3884;48.616;12.872;2022-07-11T07:57:04;14.60;1.00
7684;DHT22;3884;48.616;12.872;2022-07-11T07:59:32;14.60;1.00
7684;DHT22;3884;48.616;12.872;2022-07-11T08:01:59;14.70;1.00
7684;DHT22;3884;48.616;12.872;2022-07-11T08:04:25;14.70;99.90
7684;DHT22;3884;48.616;12.872;2022-07-11T08:06:52;14.70;99.90
7684;DHT22;3884;48.616;12.872;2022-07-11T08:09:20;14.70;99.90
7684;DHT22;3884;48.616;12.872;2022-07-11T08:11:47;14.70;99.90
7684;DHT22;3884;48.616;12.872;2022-07-11T08:14:14;14.80;99.90
7684;DHT22;3884;48.616;12.872;2022-07-11T08:16:42;14.90;99.90
7684;DHT22;3884;48.616;12.872;2022-07-11T08:19:09;14.90;99.90
7684;DHT22;3884;48.616;12.872;2022-07-11T08:21:37;15.10;99.90
7684;DHT22;3884;48.616;12.872;2022-07-11T08:24:04;15.20;99.90
7684;DHT22;3884;48.616;12.872;2022-07-11T08:26:31;15.30;99.90
7684;DHT22;3884;48.616;12.872;2022-07-11T08:28:58;15.30;99.90
7684;DHT22;3884;48.616;12.872;2022-07-11T08:31:25;15.60;99.90
7684;DHT22;3884;48.616;12.872;2022-07-11T08:33:54;15.40;99.90
7684;DHT22;3884;48.616;12.872;2022-07-11T08:36:23;15.40;99.90
7684;DHT22;3884;48.616;12.872;2022-07-11T08:38:50;15.50;1.00
7684;DHT22;3884;48.616;12.872;2022-07-11T08:41:16;15.70;72.60
7684;DHT22;3884;48.616;12.872;2022-07-11T08:43:45;16.00;1.00
7684;DHT22;3884;48.616;12.872;2022-07-11T08:46:12;16.20;99.90
7684;DHT22;3884;48.616;12.872;2022-07-11T08:48:41;16.10;1.00
7684;DHT22;3884;48.616;12.872;2022-07-11T08:51:09;16.30;1.00
7684;DHT22;3884;48.616;12.872;2022-07-11T08:53:41;16.30;1.00
7684;DHT22;3884;48.616;12.872;2022-07-11T08:56:10;16.20;99.90
7684;DHT22;3884;48.616;12.872;2022-07-11T08:58:43;16.40;13.40
7684;DHT22;3884;48.616;12.872;2022-07-11T09:01:10;16.40;99.90
7684;DHT22;3884;48.616;12.872;2022-07-11T09:03:38;16.80;1.00
7684;DHT22;3884;48.616;12.872;2022-07-11T09:06:05;16.80;99.90
7684;DHT22;3884;48.616;12.872;2022-07-11T09:08:34;16.90;1.00
7684;DHT22;3884;48.616;12.872;2022-07-11T09:11:02;16.80;99.90
7684;DHT22;3884;48.616;12.872;2022-07-11T09:13:30;16.80;99.90
7684;DHT22;3884;48.616;12.872;2022-07-11T09:16:01;16.80;99.90
7684;DHT22;3884;48.616;12.872;2022-07-11T09:18:33;16.80;1.00
7684;DHT22;3884;48.616;12.872;2022-07-11T09:21:01;16.60;1.00
7684;DHT22;3884;48.616;12.872;2022-07-11T09:23:48;16.80;99.90
7684;DHT22;3884;48.616;12.872;2022-07-11T09:26:34;16.80;1.00
7684;DHT22;3884;48.616;12.872;2022-07-11T09:29:07;16.90;1.00
7684;DHT22;3884;48.616;12.872;2022-07-11T09:31:36;17.50;99.90
7684;DHT22;3884;48.616;12.872;2022-07-11T09:34:06;17.70;99.90
7684;DHT22;3884;48.616;12.872;2022-07-11T09:36:42;17.70;1.00
7684;DHT22;3884;48.616;12.872;2022-07-11T09:39:12;17.90;99.90
7684;DHT22;3884;48.616;12.872;2022-07-11T09:41:39;17.80;99.90
7684;DHT22;3884;48.616;12.872;2022-07-11T09:44:14;17.70;1.00
7684;DHT22;3884;48.616;12.872;2022-07-11T09:46:43;17.50;1.00
7684;DHT22;3884;48.616;12.872;2022-07-11T09:49:11;17.40;1.00
7684;DHT22;3884;48.616;12.872;2022-07-11T09:51:39;17.40;99.90
7684;DHT22;3884;48.616;12.872;2022-07-11T09:54:06;17.40;1.00
7684;DHT22;3884;48.616;12.872;2022-07-11T09:56:38;17.50;1.00
7684;DHT22;3884;48.616;12.872;2022-07-11T09:59:08;17.20;1.00
7684;DHT22;3884;48.616;12.872;2022-07-11T10:01:36;17.20;8.00
7684;DHT22;3884;48.616;12.872;2022-07-11T10:04:05;17.10;99.90
7684;DHT22;3884;48.616;12.872;2022-07-11T10:06:33;17.20;99.90
7684;DHT22;3884;48.616;12.872;2022-07-11T10:08:59;17.30;99.90
7684;DHT22;3884;48.616;12.872;2022-07-11T10:11:27;17.40;1.00
7684;DHT22;3884;48.616;12.872;2022-07-11T10:13:57;17.50;1.00
7684;DHT22;3884;48.616;12.872;2022-07-11T10:16:32;17.50;1.00
7684;DHT22;3884;48.616;12.872;2022-07-11T10:19:14;17.60;1.00
7684;DHT22;3884;48.616;12.872;2022-07-11T10:21:45;17.70;1.00
7684;DHT22;3884;48.616;12.872;2022-07-11T10:24:26;17.70;1.00
7684;DHT22;3884;48.616;12.872;2022-07-11T10:27:00;18.10;99.90
7684;DHT22;3884;48.616;12.872;2022-07-11T10:29:34;18.10;99.90
7684;DHT22;3884;48.616;12.872;2022-07-11T10:32:06;18.50;99.90
7684;DHT22;3884;48.616;12.872;2022-07-11T10:34:34;18.70;99.90
7684;DHT22;3884;48.616;12.872;2022-07-11T10:37:02;18.90;1.00
7684;DHT22;3884;48.616;12.872;2022-07-11T10:39:30;19.20;1.00
7684;DHT22;3884;48.616;12.872;2022-07-11T10:41:59;19.20;1.00
7684;DHT22;3884;48.616;12.872;2022-07-11T10:44:27;19.00;1.00
7684;DHT22;3884;48.616;12.872;2022-07-11T10:46:56;18.70;1.00
7684;DHT22;3884;48.616;12.872;2022-07-11T10:49:36;18.40;1.00
7684;DHT22;3884;48.616;12.872;2022-07-11T10:52:05;18.20;1.00
7684;DHT22;3884;48.616;12.872;2022-07-11T10:54:44;18.20;1.00
7684;DHT22;3884;48.616;12.872;2022-07-11T10:57:17;18.10;1.00
7684;DHT22;3884;48.616;12.872;2022-07-11T10:59:58;17.90;1.00
7684;DHT22;3884;48.616;12.872;2022-07-11T11:02:27;17.90;1.00
7684;DHT22;3884;48.616;12.872;2022-07-11T11:04:56;17.70;1.00
7684;DHT22;3884;48.616;12.872;2022-07-11T11:07:34;18.00;1.00
7684;DHT22;3884;48.616;12.872;2022-07-11T11:10:05;18.30;1.00
7684;DHT22;3884;48.616;12.872;2022-07-11T11:13:13;18.40;1.00
7684;DHT22;3884;48.616;12.872;2022-07-11T11:15:43;18.70;1.00
7684;DHT22;3884;48.616;12.872;2022-07-11T11:18:33;19.10;1.00
7684;DHT22;3884;48.616;12.872;2022-07-11T11:21:23;19.40;1.00
7684;DHT22;3884;48.616;12.872;2022-07-11T11:24:06;19.30;1.00
7684;DHT22;3884;48.616;12.872;2022-07-11T11:26:50;19.30;1.00
7684;DHT22;3884;48.616;12.872;2022-07-11T11:29:22;18.90;1.00
7684;DHT22;3884;48.616;12.872;2022-07-11T11:31:51;18.80;1.00
7684;DHT22;3884;48.616;12.872;2022-07-11T11:34:20;18.80;1.00
7684;DHT22;3884;48.616;12.872;2022-07-11T11:36:59;18.90;1.00
7684;DHT22;3884;48.616;12.872;2022-07-11T11:39:33;18.80;1.00
7684;DHT22;3884;48.616;12.872;2022-07-11T11:42:14;18.90;1.00
7684;DHT22;3884;48.616;12.872;2022-07-11T11:44:52;19.10;1.00
7684;DHT22;3884;48.616;12.872;2022-07-11T11:47:19;19.20;1.00
7684;DHT22;3884;48.616;12.872;2022-07-11T11:49:48;19.30;1.00
7684;DHT22;3884;48.616;12.872;2022-07-11T11:52:16;19.20;1.00
7684;DHT22;3884;48.616;12.872;2022-07-11T11:54:43;19.10;99.90
7684;DHT22;3884;48.616;12.872;2022-07-11T11:57:11;19.00;99.90
7684;DHT22;3884;48.616;12.872;2022-07-11T11:59:39;19.10;99.90
7684;DHT22;3884;48.616;12.872;2022-07-11T12:02:07;19.00;1.00
7684;DHT22;3884;48.616;12.872;2022-07-11T12:04:35;19.00;99.90
7684;DHT22;3884;48.616;12.872;2022-07-11T12:07:04;19.20;99.90
7684;DHT22;3884;48.616;12.872;2022-07-11T12:09:31;19.20;99.90
7684;DHT22;3884;48.616;12.872;2022-07-11T12:12:20;19.50;99.90
7684;DHT22;3884;48.616;12.872;2022-07-11T12:15:06;19.40;99.90
7684;DHT22;3884;48.616;12.872;2022-07-11T12:17:34;19.40;99.90
7684;DHT22;3884;48.616;12.872;2022-07-11T12:20:02;19.40;99.90
7684;DHT22;3884;48.616;12.872;2022-07-11T12:22:40;19.40;99.90
7684;DHT22;3884;48.616;12.872;2022-07-11T12:25:09;19.40;99.90
7684;DHT22;3884;48.616;12.872;2022-07-11T12:27:36;19.40;99.90
7684;DHT22;3884;48.616;12.872;2022-07-11T12:30:04;19.40;99.90
7684;DHT22;3884;48.616;12.872;2022-07-11T12:32:31;19.60;99.90
7684;DHT22;3884;48.616;12.872;2022-07-11T12:34:58;19.60;99.90
7684;DHT22;3884;48.616;12.872;2022-07-11T12:37:38;19.70;99.90
7684;DHT22;3884;48.616;12.872;2022-07-11T12:40:06;19.90;99.90
7684;DHT22;3884;48.616;12.872;2022-07-11T12:42:34;20.20;99.90
7684;DHT22;3884;48.616;12.872;2022-07-11T12:45:03;19.90;99.90
7684;DHT22;3884;48.616;12.872;2022-07-11T12:47:34;20.00;99.90
7684;DHT22;3884;48.616;12.872;2022-07-11T12:50:11;19.90;99.90
7684;DHT22;3884;48.616;12.872;2022-07-11T12:52:42;20.10;99.90
7684;DHT22;3884;48.616;12.872;2022-07-11T12:55:11;20.10;99.90
7684;DHT22;3884;48.616;12.872;2022-07-11T12:58:09;20.20;99.90
7684;DHT22;3884;48.616;12.872;2022-07-11T13:00:43;20.30;99.90
7684;DHT22;3884;48.616;12.872;2022-07-11T13:03:11;20.40;99.90
7684;DHT22;3884;48.616;12.872;2022-07-11T13:05:47;20.50;99.90
7684;DHT22;3884;48.616;12.872;2022-07-11T13:08:24;20.40;99.90
7684;DHT22;3884;48.616;12.872;2022-07-11T13:11:11;20.30;99.90
7684;DHT22;3884;48.616;12.872;2022-07-11T13:13:38;20.30;99.90
7684;DHT22;3884;48.616;12.872;2022-07-11T13:16:05;20.50;99.90
7684;DHT22;3884;48.616;12.872;2022-07-11T13:18:33;20.70;99.90
7684;DHT22;3884;48.616;12.872;2022-07-11T13:21:00;20.90;99.90
7684;DHT22;3884;48.616;12.872;2022-07-11T13:23:29;20.90;99.90
7684;DHT22;3884;48.616;12.872;2022-07-11T13:25:56;20.80;99.90
7684;DHT22;3884;48.616;12.872;2022-07-11T13:28:23;21.00;99.90
7684;DHT22;3884;48.616;12.872;2022-07-11T13:30:50;20.90;99.90
7684;DHT22;3884;48.616;12.872;2022-07-11T13:33:18;20.60;99.90
7684;DHT22;3884;48.616;12.872;2022-07-11T13:35:45;20.40;99.90
7684;DHT22;3884;48.616;12.872;2022-07-11T13:38:12;20.40;99.90
7684;DHT22;3884;48.616;12.872;2022-07-11T13:40:41;20.40;99.90
7684;DHT22;3884;48.616;12.872;2022-07-11T13:43:08;20.30;99.90
7684;DHT22;3884;48.616;12.872;2022-07-11T13:45:36;20.40;99.90
7684;DHT22;3884;48.616;12.872;2022-07-11T13:48:04;20.40;99.90
7684;DHT22;3884;48.616;12.872;2022-07-11T13:50:32;20.50;99.90
7684;DHT22;3884;48.616;12.872;2022-07-11T13:52:59;20.40;99.90
7684;DHT22;3884;48.616;12.872;2022-07-11T13:55:26;20.30;99.90
7684;DHT22;3884;48.616;12.872;2022-07-11T13:57:57;20.40;99.90
7684;DHT22;3884;48.616;12.872;2022-07-11T14:00:25;20.70;99.90
7684;DHT22;3884;48.616;12.872;2022-07-11T14:02:52;20.80;99.90
7684;DHT22;3884;48.616;12.872;2022-07-11T14:05:19;20.90;99.90
7684;DHT22;3884;48.616;12.872;2022-07-11T14:07:46;21.00;99.90
7684;DHT22;3884;48.616;12.872;2022-07-11T14:10:13;21.20;99.90
7684;DHT22;3884;48.616;12.872;2022-07-11T14:12:40;21.20;99.90
7684;DHT22;3884;48.616;12.872;2022-07-11T14:15:10;20.90;99.90
7684;DHT22;3884;48.616;12.872;2022-07-11T14:17:37;20.80;99.90
7684;DHT22;3884;48.616;12.872;2022-07-11T14:20:05;20.90;99.90
7684;DHT22;3884;48.616;12.872;2022-07-11T14:22:33;20.70;99.90
7684;DHT22;3884;48.616;12.872;2022-07-11T14:25:00;20.90;99.90
7684;DHT22;3884;48.616;12.872;2022-07-11T14:27:26;21.40;99.90
7684;DHT22;3884;48.616;12.872;2022-07-11T14:29:54;21.80;99.90
7684;DHT22;3884;48.616;12.872;2022-07-11T14:32:22;21.50;99.90
7684;DHT22;3884;48.616;12.872;2022-07-11T14:34:49;21.20;99.90
7684;DHT22;3884;48.616;12.872;2022-07-11T14:37:17;21.10;99.90
7684;DHT22;3884;48.616;12.872;2022-07-11T14:39:44;21.60;99.90
7684;DHT22;3884;48.616;12.872;2022-07-11T14:42:11;21.70;99.90
7684;DHT22;3884;48.616;12.872;2022-07-11T14:44:38;21.50;99.90
7684;DHT22;3884;48.616;12.872;2022-07-11T14:47:05;21.10;99.90
7684;DHT22;3884;48.616;12.872;2022-07-11T14:49:33;21.00;99.90
7684;DHT22;3884;48.616;12.872;2022-07-11T14:52:00;20.90;99.90
7684;DHT22;3884;48.616;12.872;2022-07-11T14:54:27;21.10;99.90
7684;DHT22;3884;48.616;12.872;2022-07-11T14:56:54;21.50;99.90
7684;DHT22;3884;48.616;12.872;2022-07-11T14:59:21;21.80;99.90
7684;DHT22;3884;48.616;12.872;2022-07-11T15:01:48;22.00;99.90
7684;DHT22;3884;48.616;12.872;2022-07-11T15:04:15;22.50;99.90
7684;DHT22;3884;48.616;12.872;2022-07-11T15:06:44;22.20;99.90
7684;DHT22;3884;48.616;12.872;2022-07-11T15:09:28;22.00;99.90
7684;DHT22;3884;48.616;12.872;2022-07-11T15:12:12;21.60;99.90
7684;DHT22;3884;48.616;12.872;2022-07-11T15:14:51;21.50;99.90
7684;DHT22;3884;48.616;12.872;2022-07-11T15:17:18;22.10;99.90
7684;DHT22;3884;48.616;12.872;2022-07-11T15:19:45;22.20;99.90
7684;DHT22;3884;48.616;12.872;2022-07-11T15:22:14;21.90;99.90
7684;DHT22;3884;48.616;12.872;2022-07-11T15:24:41;21.60;99.90
7684;DHT22;3884;48.616;12.872;2022-07-11T15:27:08;21.30;99.90
7684;DHT22;3884;48.616;12.872;2022-07-11T15:29:35;21.20;99.90
7684;DHT22;3884;48.616;12.872;2022-07-11T15:32:03;21.20;99.90
7684;DHT22;3884;48.616;12.872;2022-07-11T15:34:30;21.00;99.90
7684;DHT22;3884;48.616;12.872;2022-07-11T15:36:57;21.00;99.90
7684;DHT22;3884;48.616;12.872;2022-07-11T15:39:25;21.00;99.90
7684;DHT22;3884;48.616;12.872;2022-07-11T15:41:52;20.90;99.90
7684;DHT22;3884;48.616;12.872;2022-07-11T15:44:19;20.70;99.90
7684;DHT22;3884;48.616;12.872;2022-07-11T15:46:46;20.70;99.90
7684;DHT22;3884;48.616;12.872;2022-07-11T15:49:13;20.70;99.90
7684;DHT22;3884;48.616;12.872;2022-07-11T15:51:40;20.80;99.90
7684;DHT22;3884;48.616;12.872;2022-07-11T15:54:07;20.90;99.90
7684;DHT22;3884;48.616;12.872;2022-07-11T15:56:35;20.80;99.90
7684;DHT22;3884;48.616;12.872;2022-07-11T15:59:02;20.90;99.90
7684;DHT22;3884;48.616;12.872;2022-07-11T16:01:29;20.80;99.90
7684;DHT22;3884;48.616;12.872;2022-07-11T16:03:59;20.70;99.90